Time;durP1;ratioP1;P1;durP2;ratioP2;P2;SDS_P1;SDS_P2;PMS_P1;PMS_P2;Temp;Humidity;BMP_temperature;BMP_pressure;BME280_temperature;BME280_humidity;BME280_pressure;Samples;Min_cycle;Max_cycle;Signal;HPM_P1;HPM_P2
2022/02/01 00:09:41;;;;;;;0.20;0.10;;;7.90;99.90;;;;;;25675964;23;20735;-70
2022/02/01 00:20:05;;;;;;;0.20;0.00;;;8.00;99.90;;;;;;25707746;23;20215;-70
2022/02/01 00:40:33;;;;;;;0.20;0.00;;;8.00;99.90;;;;;;25710029;23;20215;-69
2022/02/01 00:50:37;;;;;;;0.20;0.10;;;8.00;99.90;;;;;;25684682;23;20527;-71
2022/02/01 01:00:44;;;;;;;0.20;0.10;;;8.00;99.90;;;;;;25710358;23;20197;-70
2022/02/01 01:10:48;;;;;;;0.20;0.00;;;7.90;99.90;;;;;;25709855;23;20200;-69
2022/02/01 02:02:23;;;;;;;0.20;0.00;;;8.50;99.90;;;;;;25707578;23;20189;-71
2022/02/01 02:12:49;;;;;;;0.20;0.00;;;8.50;99.90;;;;;;25687669;23;20235;-71
2022/02/01 02:22:55;;;;;;;0.20;0.00;;;8.60;99.90;;;;;;25715087;23;20185;-64
2022/02/01 02:33:03;;;;;;;0.20;0.00;;;8.50;99.90;;;;;;25686127;23;20170;-65
2022/02/01 02:53:30;;;;;;;0.20;0.00;;;8.30;99.90;;;;;;25687175;23;20185;-73
2022/02/01 03:03:35;;;;;;;0.20;0.00;;;8.30;99.90;;;;;;25712114;23;20511;-72
2022/02/01 03:13:43;;;;;;;0.20;0.00;;;7.70;99.90;;;;;;25712363;23;20202;-71
2022/02/01 03:23:48;;;;;;;0.83;0.83;;;8.00;99.90;;;;;;25713405;23;20216;-73
2022/02/01 03:33:52;;;;;;;0.20;0.00;;;8.00;99.90;;;;;;25711491;23;20165;-72
2022/02/01 03:43:59;;;;;;;0.20;0.00;;;7.60;99.90;;;;;;25711136;23;20189;-73
2022/02/01 03:54:03;;;;;;;0.20;0.00;;;8.20;99.90;;;;;;25710335;23;20173;-72
2022/02/01 04:04:09;;;;;;;0.20;0.00;;;8.40;99.90;;;;;;25710278;23;20632;-73
2022/02/01 04:14:17;;;;;;;0.20;0.00;;;8.50;99.90;;;;;;25729147;23;20639;-72
2022/02/01 04:24:22;;;;;;;0.20;0.00;;;8.40;99.90;;;;;;25710917;23;20190;-65
2022/02/01 04:34:26;;;;;;;0.20;0.00;;;8.30;99.90;;;;;;25711028;23;20165;-66
2022/02/01 04:44:31;;;;;;;3.87;2.37;;;8.50;99.90;;;;;;25682581;23;20181;-65
2022/02/01 04:54:35;;;;;;;0.20;0.00;;;8.50;99.90;;;;;;25707810;23;20474;-65
2022/02/01 05:04:40;;;;;;;0.20;0.00;;;8.20;99.90;;;;;;25712652;23;20190;-65
2022/02/01 05:14:44;;;;;;;0.20;0.00;;;8.20;99.90;;;;;;25714995;23;20201;-66
2022/02/01 05:24:53;;;;;;;0.20;0.00;;;7.90;99.90;;;;;;25717386;23;20185;-65
2022/02/01 05:34:58;;;;;;;0.20;0.00;;;7.80;99.90;;;;;;25716608;23;20154;-65
2022/02/01 05:45:03;;;;;;;0.20;0.00;;;7.80;99.90;;;;;;25715648;23;20189;-64
2022/02/01 05:55:10;;;;;;;0.20;0.00;;;7.40;99.90;;;;;;25713865;23;20194;-66
2022/02/01 06:05:15;;;;;;;1.30;1.20;;;7.40;99.90;;;;;;25687706;23;20204;-65
2022/02/01 06:15:23;;;;;;;0.20;0.00;;;7.50;99.90;;;;;;25713482;23;20165;-74
2022/02/01 06:25:48;;;;;;;0.20;0.00;;;7.60;99.90;;;;;;25713886;23;20220;-74
2022/02/01 06:35:52;;;;;;;0.20;0.00;;;7.50;99.90;;;;;;25712482;23;20204;-71
2022/02/01 06:45:58;;;;;;;0.20;0.00;;;7.60;99.90;;;;;;25685727;23;20466;-73
2022/02/01 06:56:08;;;;;;;0.20;0.00;;;7.60;99.90;;;;;;25710504;23;20162;-73
2022/02/01 07:06:13;;;;;;;0.20;0.00;;;7.40;99.90;;;;;;25703548;23;20600;-73
2022/02/01 07:16:18;;;;;;;1.37;1.27;;;7.20;99.90;;;;;;25707026;23;20154;-64
2022/02/01 07:26:26;;;;;;;0.20;0.00;;;7.20;99.90;;;;;;25680100;23;20190;-66
2022/02/01 07:36:30;;;;;;;1.90;1.80;;;7.20;99.90;;;;;;25708510;23;20173;-66
2022/02/01 07:46:37;;;;;;;0.20;0.00;;;7.40;99.90;;;;;;25709344;23;20185;-73
2022/02/01 07:56:41;;;;;;;0.20;0.00;;;7.70;99.90;;;;;;25678629;23;20671;-72
2022/02/01 08:06:47;;;;;;;0.20;0.00;;;8.30;99.90;;;;;;25679842;23;20262;-70
2022/02/01 08:16:59;;;;;;;0.20;0.00;;;8.40;99.90;;;;;;25707137;23;20460;-72
2022/02/01 08:27:05;;;;;;;0.20;0.00;;;8.70;99.90;;;;;;25680746;23;20186;-72
2022/02/01 08:37:09;;;;;;;0.20;0.10;;;9.00;99.90;;;;;;25652940;23;20176;-72
2022/02/01 08:47:15;;;;;;;0.20;0.00;;;9.20;99.90;;;;;;25689240;23;20189;-68
2022/02/01 08:57:22;;;;;;;0.20;0.10;;;9.60;99.90;;;;;;25688919;23;20496;-66
2022/02/01 09:07:27;;;;;;;0.20;0.00;;;9.90;99.90;;;;;;25714523;23;20197;-67
2022/02/01 09:17:32;;;;;;;0.20;0.10;;;10.00;99.90;;;;;;25713053;23;20216;-72
2022/02/01 09:27:37;;;;;;;0.20;0.10;;;10.80;99.90;;;;;;25687135;23;20200;-76
2022/02/01 09:37:41;;;;;;;0.20;0.10;;;11.20;99.90;;;;;;25712575;23;20158;-75
2022/02/01 09:48:02;;;;;;;0.20;0.10;;;11.50;99.90;;;;;;25712221;23;20200;-72
2022/02/01 09:58:06;;;;;;;0.20;0.00;;;11.60;99.90;;;;;;25712960;23;20666;-73
2022/02/01 10:08:13;;;;;;;0.20;0.10;;;11.80;99.90;;;;;;25657015;23;20213;-73
2022/02/01 10:18:26;;;;;;;0.20;0.10;;;12.20;99.90;;;;;;25681214;23;20192;-73
2022/02/01 10:29:03;;;;;;;0.20;0.10;;;12.80;99.90;;;;;;25682617;23;20650;-76
2022/02/01 10:39:19;;;;;;;0.20;0.10;;;13.00;99.90;;;;;;25709829;23;20180;-72
2022/02/01 10:49:31;;;;;;;0.20;0.10;;;13.80;99.90;;;;;;25710593;23;20161;-73
2022/02/01 10:59:36;;;;;;;0.20;0.10;;;14.40;99.90;;;;;;25709453;23;20189;-74
2022/02/01 11:09:41;;;;;;;0.20;0.10;;;15.00;99.90;;;;;;25710093;23;20652;-74
2022/02/01 11:19:53;;;;;;;0.20;0.10;;;15.50;99.90;;;;;;25710888;23;20525;-75
2022/02/01 11:30:18;;;;;;;10.50;6.63;;;15.10;99.90;;;;;;25709180;23;20229;-75
2022/02/01 11:40:24;;;;;;;0.20;0.10;;;15.40;99.90;;;;;;25681348;23;20190;-77
2022/02/01 11:50:30;;;;;;;5.93;1.73;;;16.20;99.90;;;;;;25683691;23;20182;-75
2022/02/01 12:00:41;;;;;;;0.20;0.10;;;16.30;99.90;;;;;;25706663;23;20212;-78
2022/02/01 12:10:49;;;;;;;0.20;0.10;;;16.70;99.90;;;;;;25709916;23;20260;-75
2022/02/01 12:21:06;;;;;;;0.47;0.43;;;16.50;99.90;;;;;;25681807;23;20249;-76
2022/02/01 12:31:14;;;;;;;0.20;0.10;;;16.80;99.90;;;;;;25682302;23;20157;-77
2022/02/01 12:41:20;;;;;;;1.03;0.93;;;17.70;99.90;;;;;;25708699;23;20224;-74
2022/02/01 12:51:25;;;;;;;0.20;0.10;;;18.40;99.90;;;;;;25707519;23;20162;-74
2022/02/01 13:01:34;;;;;;;0.20;0.10;;;18.50;99.90;;;;;;25708499;23;20572;-67
2022/02/01 13:22:13;;;;;;;0.40;0.40;;;18.60;99.90;;;;;;25681075;23;20196;-76
2022/02/01 13:32:18;;;;;;;0.20;0.10;;;19.20;99.90;;;;;;25708441;23;20177;-75
2022/02/01 13:42:30;;;;;;;0.20;0.10;;;19.60;99.90;;;;;;25714419;23;20192;-76
2022/02/01 13:52:55;;;;;;;0.20;0.10;;;19.60;99.90;;;;;;25716226;23;20169;-76
2022/02/01 14:03:09;;;;;;;0.20;0.10;;;20.70;99.90;;;;;;25713134;23;20212;-73
2022/02/01 14:34:07;;;;;;;0.20;0.00;;;21.00;99.90;;;;;;25704824;23;20173;-69
2022/02/01 14:54:40;;;;;;;0.20;0.00;;;20.40;99.90;;;;;;25712836;23;20228;-69
2022/02/01 15:05:01;;;;;;;0.20;0.10;;;20.70;99.90;;;;;;25710847;23;20219;-70
2022/02/01 15:15:08;;;;;;;0.20;0.10;;;20.40;99.90;;;;;;25584610;23;20166;-69
2022/02/01 15:25:13;;;;;;;0.20;0.10;;;19.70;99.90;;;;;;25584068;23;20182;-69
2022/02/01 15:35:19;;;;;;;0.20;0.10;;;19.30;99.90;;;;;;25555823;23;20177;-70
2022/02/01 16:06:15;;;;;;;0.20;0.10;;;17.20;99.90;;;;;;25594419;23;20209;-72
2022/02/01 16:16:20;;;;;;;0.20;0.10;;;17.60;99.90;;;;;;25679609;23;20169;-73
2022/02/01 16:26:25;;;;;;;0.20;0.10;;;17.20;99.90;;;;;;25672664;23;20272;-73
2022/02/01 16:36:31;;;;;;;0.20;0.10;;;16.30;99.90;;;;;;25691301;23;20169;-71
2022/02/01 16:46:37;;;;;;;0.20;0.10;;;15.30;99.90;;;;;;25692368;23;20232;-71
2022/02/01 16:56:51;;;;;;;0.20;0.10;;;14.00;99.90;;;;;;25664900;23;20185;-72
2022/02/01 17:06:57;;;;;;;0.20;0.00;;;13.80;99.90;;;;;;25686542;23;20208;-71
2022/02/01 17:17:08;;;;;;;0.20;0.10;;;13.00;99.90;;;;;;25662340;23;20517;-68
2022/02/01 17:27:15;;;;;;;0.20;0.10;;;12.70;99.90;;;;;;25714613;23;20185;-67
2022/02/01 17:37:21;;;;;;;0.20;0.10;;;12.20;99.90;;;;;;25713970;23;20161;-67
2022/02/01 17:47:25;;;;;;;0.20;0.10;;;11.70;99.90;;;;;;25711102;23;20220;-66
2022/02/01 17:57:31;;;;;;;0.20;0.10;;;11.30;99.90;;;;;;25710442;23;20174;-66
2022/02/01 18:07:34;;;;;;;0.20;0.10;;;11.10;99.90;;;;;;25709747;23;20672;-66
2022/02/01 18:17:41;;;;;;;0.20;0.10;;;10.90;99.90;;;;;;25671888;23;20173;-71
2022/02/01 18:27:45;;;;;;;0.20;0.00;;;10.60;99.90;;;;;;25666743;23;20606;-66
2022/02/01 18:37:55;;;;;;;0.20;0.10;;;10.60;99.90;;;;;;25692710;23;20169;-66
2022/02/01 18:48:04;;;;;;;0.20;0.10;;;10.20;99.90;;;;;;25678322;23;20504;-67
2022/02/01 18:58:14;;;;;;;0.20;0.10;;;9.90;99.90;;;;;;25697974;23;20205;-67
2022/02/01 19:08:26;;;;;;;0.20;0.03;;;9.90;99.90;;;;;;25673199;23;20849;-74
2022/02/01 19:18:31;;;;;;;0.20;0.10;;;9.70;99.90;;;;;;25704068;23;20173;-74
2022/02/01 19:28:35;;;;;;;0.20;0.10;;;9.60;99.90;;;;;;25708562;23;20190;-66
2022/02/01 19:38:45;;;;;;;0.20;0.10;;;9.80;99.90;;;;;;25669737;23;20180;-67
2022/02/01 19:48:50;;;;;;;0.20;0.10;;;9.00;99.90;;;;;;25703520;23;20221;-66
2022/02/01 19:58:59;;;;;;;0.20;0.10;;;9.40;99.90;;;;;;25677857;23;20213;-67
2022/02/01 20:09:09;;;;;;;0.20;0.10;;;9.20;99.90;;;;;;25708758;23;20208;-65
2022/02/01 20:19:15;;;;;;;0.20;0.10;;;9.10;99.90;;;;;;25708340;23;20161;-66
2022/02/01 20:29:19;;;;;;;0.20;0.10;;;9.10;99.90;;;;;;25708978;23;20188;-65
2022/02/01 20:39:25;;;;;;;0.20;0.10;;;9.20;99.90;;;;;;25714570;23;20176;-65
2022/02/01 20:49:29;;;;;;;0.20;0.10;;;9.40;99.90;;;;;;25717792;23;20193;-65
2022/02/01 20:59:36;;;;;;;0.20;0.10;;;9.50;99.90;;;;;;25716302;23;20775;-67
2022/02/01 21:09:42;;;;;;;0.20;0.10;;;9.40;99.90;;;;;;25715978;23;20208;-67
2022/02/01 21:19:51;;;;;;;0.20;0.10;;;9.40;99.90;;;;;;25716205;23;20158;-72
2022/02/01 21:29:55;;;;;;;0.20;0.10;;;9.90;99.90;;;;;;25715435;23;20519;-73
2022/02/01 21:40:00;;;;;;;0.20;0.10;;;11.50;99.90;;;;;;25714736;23;20174;-73
2022/02/01 21:50:05;;;;;;;0.20;0.10;;;11.60;99.90;;;;;;25713723;23;20190;-66
2022/02/01 22:00:10;;;;;;;0.20;0.00;;;11.90;99.90;;;;;;25715640;23;20204;-66
2022/02/01 22:10:15;;;;;;;0.20;0.10;;;11.70;99.90;;;;;;25710595;23;20201;-66
2022/02/01 22:20:21;;;;;;;0.20;0.10;;;11.80;99.90;;;;;;25713320;23;20170;-65
2022/02/01 22:30:25;;;;;;;0.20;0.10;;;11.80;99.90;;;;;;25714262;23;20197;-77
2022/02/01 22:40:31;;;;;;;0.20;0.10;;;11.80;99.90;;;;;;25713806;23;20624;-74
2022/02/01 22:50:35;;;;;;;0.20;0.10;;;11.70;99.90;;;;;;25686409;23;20280;-73
2022/02/01 23:00:44;;;;;;;0.20;0.10;;;11.70;99.90;;;;;;25685649;23;20527;-74
2022/02/01 23:10:52;;;;;;;0.20;0.10;;;11.50;99.90;;;;;;25712271;23;20212;-75
2022/02/01 23:20:57;;;;;;;0.20;0.10;;;11.10;99.90;;;;;;25685205;23;20166;-73
2022/02/01 23:31:01;;;;;;;0.20;0.10;;;11.00;99.90;;;;;;25710973;23;20190;-74
2022/02/01 23:51:25;;;;;;;0.20;0.10;;;10.70;99.90;;;;;;25706372;23;20193;-74
